Time;durP1;ratioP1;P1;durP2;ratioP2;P2;SDS_P1;SDS_P2;PMS_P1;PMS_P2;Temp;Humidity;BMP_temperature;BMP_pressure;BME280_temperature;BME280_humidity;BME280_pressure;Samples;Min_cycle;Max_cycle;Signal;HPM_P1;HPM_P2
2021/01/23 00:01:55;;;;;;;86.47;42.35;;;;;;;4.81;71.97;98496.86;147029;1151;104927;-68
2021/01/23 00:04:58;;;;;;;56.98;31.82;;;;;;;4.80;71.89;98487.28;146990;1150;104489;-70
2021/01/23 00:08:02;;;;;;;40.45;23.12;;;;;;;4.80;71.87;98482.00;146886;1149;104489;-70
2021/01/23 00:11:05;;;;;;;89.13;45.35;;;;;;;4.76;72.10;98485.95;146862;1150;104474;-69
2021/01/23 00:14:08;;;;;;;101.33;52.63;;;;;;;4.73;72.27;98479.16;147031;1150;104681;-69
2021/01/23 00:17:11;;;;;;;70.87;38.13;;;;;;;4.69;72.06;98483.11;146906;1150;104546;-70
2021/01/23 00:20:15;;;;;;;65.17;35.48;;;;;;;4.69;72.16;98483.92;147058;1150;104465;-70
2021/01/23 00:23:19;;;;;;;52.45;27.58;;;;;;;4.70;72.09;98490.06;147121;1150;104498;-70
2021/01/23 00:26:22;;;;;;;79.10;43.15;;;;;;;4.71;72.07;98476.70;147033;1149;104953;-70
2021/01/23 00:29:25;;;;;;;49.03;28.00;;;;;;;4.71;72.11;98481.98;147032;1150;104822;-70
2021/01/23 00:32:28;;;;;;;43.73;25.40;;;;;;;4.72;72.04;98483.62;146874;1150;104978;-70
2021/01/23 00:35:31;;;;;;;40.08;23.10;;;;;;;4.69;71.97;98489.20;147029;1149;104566;-70
2021/01/23 00:38:34;;;;;;;35.88;20.88;;;;;;;4.66;72.46;98496.66;147024;1150;104483;-70
2021/01/23 00:41:38;;;;;;;36.30;19.48;;;;;;;4.61;71.63;98475.97;146859;1150;104511;-70
2021/01/23 00:44:42;;;;;;;45.60;25.08;;;;;;;4.54;72.42;98474.94;146567;1149;104646;-70
2021/01/23 00:47:45;;;;;;;32.15;18.23;;;;;;;4.50;71.87;98466.53;146778;1150;104616;-70
2021/01/23 00:50:48;;;;;;;38.05;21.05;;;;;;;4.48;72.04;98476.44;146701;1149;104543;-70
2021/01/23 00:53:51;;;;;;;51.23;31.35;;;;;;;4.47;71.59;98500.35;146542;1150;104470;-70
2021/01/23 00:56:55;;;;;;;99.13;39.63;;;;;;;4.47;71.76;98508.28;146916;1149;104466;-70
2021/01/23 00:59:58;;;;;;;62.53;32.30;;;;;;;4.48;72.46;98502.84;147021;1150;104738;-69
2021/01/23 01:03:01;;;;;;;41.77;24.00;;;;;;;4.50;72.24;98500.02;147006;1150;104551;-69
2021/01/23 01:06:12;;;;;;;44.03;22.20;;;;;;;4.50;72.31;98494.73;147108;1150;104444;-69
2021/01/23 01:09:16;;;;;;;36.58;19.00;;;;;;;4.48;72.59;98487.00;147059;1150;104495;-69
2021/01/23 01:12:19;;;;;;;39.08;18.70;;;;;;;4.45;72.59;98484.66;147013;1150;104574;-70
2021/01/23 01:15:22;;;;;;;31.95;16.93;;;;;;;4.47;72.36;98492.43;147000;1150;104614;-70
2021/01/23 01:18:25;;;;;;;65.10;29.55;;;;;;;4.53;72.39;98489.97;147083;1151;104548;-70
2021/01/23 01:21:29;;;;;;;98.97;41.35;;;;;;;4.55;71.87;98503.03;147004;1150;104535;-70
2021/01/23 01:24:32;;;;;;;81.47;37.87;;;;;;;4.53;72.44;98505.82;146993;1150;104566;-70
2021/01/23 01:27:36;;;;;;;54.27;27.97;;;;;;;4.51;72.44;98501.69;147014;1150;104510;-70
2021/01/23 01:30:39;;;;;;;46.58;26.25;;;;;;;4.47;71.97;98501.17;146986;1150;104837;-70
2021/01/23 01:33:42;;;;;;;34.27;18.27;;;;;;;4.45;72.73;98503.14;147050;1150;104583;-70
2021/01/23 01:36:45;;;;;;;31.23;16.67;;;;;;;4.42;72.91;98497.34;147066;1150;104485;-70
2021/01/23 01:39:48;;;;;;;36.50;18.50;;;;;;;4.38;72.52;98511.85;147008;1150;104470;-70
2021/01/23 01:42:51;;;;;;;32.10;18.20;;;;;;;4.23;74.51;98535.34;146989;1150;104585;-69
2021/01/23 01:45:55;;;;;;;38.83;23.67;;;;;;;4.02;72.58;98540.97;147041;1150;104638;-69
2021/01/23 01:49:01;;;;;;;38.10;23.22;;;;;;;4.05;72.91;98535.40;147006;1149;104588;-69
2021/01/23 01:52:05;;;;;;;37.00;22.77;;;;;;;4.04;72.21;98542.50;146862;1150;104505;-69
2021/01/23 01:55:11;;;;;;;36.40;22.73;;;;;;;4.00;72.17;98540.30;147002;1150;104510;-70
2021/01/23 01:58:14;;;;;;;33.28;20.50;;;;;;;3.93;71.90;98527.72;146909;1150;104545;-71
2021/01/23 02:01:17;;;;;;;36.50;20.00;;;;;;;3.89;71.72;98539.57;147057;1151;104543;-68
2021/01/23 02:04:31;;;;;;;35.05;20.72;;;;;;;3.80;72.46;98537.02;147137;1148;104485;-68
2021/01/23 02:07:46;;;;;;;33.90;19.90;;;;;;;3.67;72.41;98529.48;147060;1150;104489;-69
2021/01/23 02:11:03;;;;;;;35.80;20.17;;;;;;;3.65;72.23;98539.36;146981;1150;104528;-69
2021/01/23 02:14:15;;;;;;;34.90;18.23;;;;;;;3.65;71.86;98547.27;147016;1150;105440;-69
2021/01/23 02:17:23;;;;;;;23.52;13.70;;;;;;;3.63;71.76;98555.33;146981;1150;104499;-69
2021/01/23 02:20:38;;;;;;;27.75;16.50;;;;;;;3.65;72.50;98557.81;146715;1150;104984;-69
2021/01/23 02:23:45;;;;;;;34.37;17.23;;;;;;;3.64;71.94;98562.27;146691;1149;104943;-69
2021/01/23 02:26:57;;;;;;;30.95;17.67;;;;;;;3.61;71.68;98559.10;146981;1150;105034;-69
2021/01/23 02:30:11;;;;;;;29.60;17.10;;;;;;;3.54;71.80;98548.30;147053;1150;104461;-69
2021/01/23 02:33:17;;;;;;;28.70;17.42;;;;;;;3.41;71.46;98551.33;146525;1150;104614;-69
2021/01/23 02:36:22;;;;;;;26.87;16.25;;;;;;;3.37;72.31;98559.67;146564;1150;104561;-70
2021/01/23 02:39:27;;;;;;;31.87;17.80;;;;;;;3.36;71.95;98542.21;147055;1151;104496;-70
2021/01/23 02:42:30;;;;;;;44.23;27.45;;;;;;;3.32;72.28;98552.22;147006;1150;104483;-70
2021/01/23 02:45:33;;;;;;;36.55;21.25;;;;;;;3.22;71.32;98557.55;147019;1150;104482;-69
2021/01/23 02:48:37;;;;;;;32.28;18.98;;;;;;;3.15;70.91;98549.39;146900;1150;104610;-69
2021/01/23 02:51:49;;;;;;;28.83;16.20;;;;;;;3.07;71.95;98559.03;146558;1151;104536;-69
2021/01/23 02:55:02;;;;;;;42.45;22.75;;;;;;;2.92;70.15;98559.50;146679;1149;105518;-69
2021/01/23 02:58:10;;;;;;;62.60;32.73;;;;;;;2.83;71.42;98568.30;147083;1150;104563;-69
2021/01/23 03:01:16;;;;;;;38.85;22.32;;;;;;;2.85;71.12;98576.03;146868;1151;104473;-70
2021/01/23 03:04:21;;;;;;;27.58;16.32;;;;;;;2.86;70.36;98567.99;146863;1149;104648;-70
2021/01/23 03:07:24;;;;;;;38.77;19.37;;;;;;;2.79;70.99;98566.09;147089;1150;104500;-70
2021/01/23 03:10:39;;;;;;;33.23;17.57;;;;;;;2.80;70.95;98563.31;147015;1150;104468;-70
2021/01/23 03:13:42;;;;;;;31.25;18.90;;;;;;;2.87;70.83;98555.67;147044;1150;104493;-71
2021/01/23 03:16:51;;;;;;;39.05;21.93;;;;;;;2.87;71.42;98542.50;146907;1150;104468;-70
2021/01/23 03:19:54;;;;;;;32.90;18.35;;;;;;;2.81;70.73;98546.55;147029;1150;104559;-71
2021/01/23 03:22:57;;;;;;;33.25;18.35;;;;;;;2.84;70.46;98548.05;146700;1150;104519;-71
2021/01/23 03:26:01;;;;;;;32.50;16.97;;;;;;;2.87;70.35;98542.50;147040;1150;104560;-70
2021/01/23 03:29:04;;;;;;;32.70;17.00;;;;;;;2.92;70.96;98543.69;147050;1150;104624;-70
2021/01/23 03:32:08;;;;;;;29.98;16.32;;;;;;;2.98;70.45;98549.36;147030;1150;104519;-70
2021/01/23 03:35:13;;;;;;;32.08;16.30;;;;;;;3.06;71.93;98537.13;147041;1151;104633;-71
2021/01/23 03:38:16;;;;;;;27.42;15.70;;;;;;;3.14;71.21;98544.30;147058;1149;104532;-70
2021/01/23 03:41:20;;;;;;;26.67;14.63;;;;;;;3.28;71.07;98540.32;146900;1150;104559;-69
2021/01/23 03:44:23;;;;;;;22.70;13.43;;;;;;;3.42;71.88;98526.61;147050;1150;104499;-70
2021/01/23 03:47:26;;;;;;;39.50;20.80;;;;;;;3.58;70.75;98519.83;146939;1150;104542;-70
2021/01/23 03:50:29;;;;;;;36.28;20.12;;;;;;;3.69;70.79;98516.97;146752;1150;104593;-70
2021/01/23 03:53:33;;;;;;;33.63;18.90;;;;;;;3.79;71.37;98516.88;147046;1151;104565;-70
2021/01/23 03:56:36;;;;;;;34.05;18.02;;;;;;;3.85;70.85;98509.20;147060;1150;104463;-71
2021/01/23 03:59:39;;;;;;;33.83;19.70;;;;;;;3.88;71.35;98500.95;147082;1151;104551;-70
2021/01/23 04:02:42;;;;;;;40.88;22.62;;;;;;;3.91;70.84;98505.94;147038;1149;104479;-70
2021/01/23 04:05:46;;;;;;;31.75;18.87;;;;;;;3.95;71.37;98505.65;147069;1151;104551;-69
2021/01/23 04:08:49;;;;;;;34.30;18.83;;;;;;;3.96;70.73;98502.83;147077;1151;104540;-69
2021/01/23 04:11:52;;;;;;;32.50;18.03;;;;;;;3.99;70.70;98491.16;147035;1150;104486;-70
2021/01/23 04:14:55;;;;;;;42.98;22.25;;;;;;;4.00;71.57;98476.96;147071;1150;104561;-70
2021/01/23 04:17:58;;;;;;;55.28;28.05;;;;;;;3.97;71.78;98478.11;147049;1151;104514;-70
2021/01/23 04:21:02;;;;;;;52.78;26.45;;;;;;;3.92;71.23;98465.36;147016;1149;104564;-71
2021/01/23 04:24:07;;;;;;;51.23;26.40;;;;;;;3.91;71.33;98452.34;146970;1150;104553;-67
2021/01/23 04:27:10;;;;;;;56.55;28.80;;;;;;;3.92;72.80;98444.25;146615;1149;104477;-69
2021/01/23 04:30:15;;;;;;;52.13;26.65;;;;;;;4.02;72.08;98428.34;147001;1150;104570;-70
2021/01/23 04:33:18;;;;;;;46.02;25.60;;;;;;;4.11;71.75;98421.28;146852;1150;104560;-70
2021/01/23 04:36:21;;;;;;;62.00;30.35;;;;;;;4.17;72.07;98433.84;146900;1150;104598;-68
2021/01/23 04:39:24;;;;;;;53.17;27.83;;;;;;;4.19;71.79;98439.79;147124;1148;104510;-69
2021/01/23 04:42:27;;;;;;;52.48;28.17;;;;;;;4.16;71.70;98429.56;147043;1150;104562;-69
2021/01/23 04:45:31;;;;;;;53.35;28.65;;;;;;;4.20;72.19;98430.91;147026;1149;104603;-69
2021/01/23 04:48:35;;;;;;;55.20;28.30;;;;;;;4.28;72.04;98428.30;147008;1149;104505;-69
2021/01/23 04:51:39;;;;;;;45.35;25.27;;;;;;;4.38;71.50;98444.02;147030;1149;104605;-70
2021/01/23 04:54:44;;;;;;;40.00;21.60;;;;;;;4.42;71.95;98437.43;146796;1149;104480;-69
2021/01/23 04:57:47;;;;;;;45.55;24.90;;;;;;;4.49;71.98;98435.81;146974;1149;104494;-70
2021/01/23 05:00:50;;;;;;;44.85;25.30;;;;;;;4.55;72.48;98439.63;147022;1150;104603;-70
2021/01/23 05:03:59;;;;;;;47.48;27.10;;;;;;;4.59;72.17;98419.02;147047;1150;104516;-68
2021/01/23 05:07:02;;;;;;;84.22;49.08;;;;;;;4.59;72.31;98419.84;147056;1149;104748;-68
2021/01/23 05:10:17;;;;;;;96.83;62.60;;;;;;;4.61;71.87;98419.68;147014;1150;104537;-69
2021/01/23 05:13:20;;;;;;;42.98;24.72;;;;;;;4.62;72.21;98414.25;146703;1150;105065;-69
2021/01/23 05:16:26;;;;;;;79.82;50.28;;;;;;;4.68;72.24;98412.78;147064;1150;104563;-69
2021/01/23 05:19:42;;;;;;;47.37;27.33;;;;;;;4.76;72.05;98414.61;147043;1149;104563;-69
2021/01/23 05:22:52;;;;;;;166.88;131.27;;;;;;;4.82;72.36;98406.86;147083;1150;104643;-69
2021/01/23 05:25:56;;;;;;;47.13;29.80;;;;;;;4.87;72.16;98411.67;147046;1150;104560;-69
2021/01/23 05:29:11;;;;;;;57.95;34.95;;;;;;;4.89;72.21;98399.13;147040;1150;104554;-70
2021/01/23 05:32:18;;;;;;;50.98;29.37;;;;;;;4.92;72.07;98396.14;147122;1150;104463;-70
2021/01/23 05:35:21;;;;;;;148.28;109.70;;;;;;;4.91;72.28;98413.00;146579;1151;104497;-71
2021/01/23 05:38:29;;;;;;;61.00;41.10;;;;;;;4.89;72.35;98417.63;146814;1150;104649;-74
2021/01/23 05:41:32;;;;;;;45.33;30.45;;;;;;;4.85;72.05;98411.83;146705;1150;104582;-75
2021/01/23 05:44:35;;;;;;;118.65;50.25;;;;;;;4.89;72.39;98414.98;146907;1149;104477;-74
2021/01/23 05:47:39;;;;;;;88.75;40.35;;;;;;;4.97;72.21;98412.34;146837;1150;104591;-74
2021/01/23 05:50:42;;;;;;;64.70;35.88;;;;;;;5.02;72.47;98415.34;147163;1150;104563;-74
2021/01/23 05:53:46;;;;;;;149.75;70.85;;;;;;;5.07;72.37;98413.01;147089;1150;104562;-74
2021/01/23 05:56:49;;;;;;;147.25;59.48;;;;;;;5.07;72.41;98402.44;146830;1151;104503;-76
2021/01/23 05:59:53;;;;;;;104.03;46.70;;;;;;;5.06;72.37;98403.44;147096;1149;104563;-75
2021/01/23 06:02:57;;;;;;;134.00;59.85;;;;;;;5.06;72.31;98402.59;147048;1148;104479;-74
2021/01/23 06:06:01;;;;;;;96.82;43.87;;;;;;;5.03;72.29;98401.11;147283;1148;104482;-73
2021/01/23 06:09:04;;;;;;;67.22;31.70;;;;;;;4.99;72.45;98399.79;147490;1148;104486;-72
2021/01/23 06:12:33;;;;;;;55.95;28.20;;;;;;;5.01;72.75;98384.59;147139;1148;104473;-76
2021/01/23 06:15:41;;;;;;;70.50;34.43;;;;;;;5.06;72.66;98386.73;147210;1148;104470;-74
2021/01/23 06:18:44;;;;;;;57.90;27.17;;;;;;;5.10;72.54;98386.26;147287;1148;104488;-74
2021/01/23 06:21:52;;;;;;;270.40;96.28;;;;;;;5.13;72.35;98373.70;147298;1148;104502;-76
2021/01/23 06:24:56;;;;;;;351.52;104.75;;;;;;;5.11;72.37;98377.32;146992;1148;104905;-76
2021/01/23 06:27:59;;;;;;;292.45;77.80;;;;;;;5.10;72.56;98365.11;146940;1148;104557;-76
2021/01/23 06:31:32;;;;;;;310.17;84.20;;;;;;;5.06;72.48;98358.50;147185;1148;104464;-73
2021/01/23 06:34:44;;;;;;;205.15;60.33;;;;;;;5.05;72.26;98362.13;147191;1148;104967;-76
2021/01/23 06:37:47;;;;;;;183.65;54.23;;;;;;;4.99;72.48;98354.86;147304;1148;104505;-76
2021/01/23 06:40:51;;;;;;;216.35;62.27;;;;;;;5.01;72.25;98355.52;147109;1148;105077;-76
2021/01/23 06:44:16;;;;;;;135.97;43.92;;;;;;;5.05;72.71;98340.98;147284;1148;104639;-73
2021/01/23 06:47:19;;;;;;;211.07;60.88;;;;;;;5.11;72.43;98345.59;147175;1148;104479;-73
2021/01/23 06:50:36;;;;;;;180.93;55.80;;;;;;;5.15;73.11;98346.09;147107;1148;104476;-72
2021/01/23 06:53:40;;;;;;;149.17;53.90;;;;;;;5.17;72.99;98343.30;147301;1148;104484;-74
2021/01/23 06:56:44;;;;;;;110.32;44.23;;;;;;;5.18;72.79;98340.49;146977;1148;104665;-73
2021/01/23 06:59:49;;;;;;;101.78;42.50;;;;;;;5.15;73.16;98335.52;147061;1148;104539;-71
2021/01/23 07:02:52;;;;;;;109.12;49.77;;;;;;;5.18;72.81;98337.03;146995;1148;104736;-72
2021/01/23 07:05:57;;;;;;;114.08;54.67;;;;;;;5.25;72.75;98319.48;147170;1148;104550;-72
2021/01/23 07:09:00;;;;;;;597.05;359.40;;;;;;;5.27;72.58;98325.43;147205;1148;104610;-72
2021/01/23 07:12:04;;;;;;;726.85;491.18;;;;;;;5.32;73.23;98331.05;147178;1148;104672;-72
2021/01/23 07:15:09;;;;;;;1087.33;691.50;;;;;;;5.35;72.80;98320.16;146941;1148;104465;-73
2021/01/23 07:18:16;;;;;;;503.15;308.17;;;;;;;5.36;73.18;98316.50;147018;1148;104540;-72
2021/01/23 07:21:21;;;;;;;932.00;575.33;;;;;;;5.37;73.18;98312.88;147188;1148;104551;-74
2021/01/23 07:24:24;;;;;;;1000.92;685.33;;;;;;;5.38;73.15;98313.70;147257;1148;104551;-73
2021/01/23 07:27:27;;;;;;;860.48;555.50;;;;;;;5.36;73.08;98319.14;146947;1148;104574;-72
2021/01/23 07:30:30;;;;;;;459.95;267.93;;;;;;;5.40;73.02;98311.70;147195;1148;104479;-75
2021/01/23 07:33:36;;;;;;;280.75;174.95;;;;;;;5.43;73.17;98304.27;147185;1148;104476;-72
2021/01/23 07:36:41;;;;;;;376.55;263.65;;;;;;;5.43;73.54;98306.91;147123;1148;104460;-74
2021/01/23 07:39:44;;;;;;;263.30;158.57;;;;;;;5.48;73.23;98304.56;147190;1148;104578;-75
2021/01/23 07:42:47;;;;;;;224.67;130.40;;;;;;;5.50;72.99;98297.31;147151;1148;104559;-74
2021/01/23 07:45:54;;;;;;;174.20;112.30;;;;;;;5.52;73.58;98291.83;147010;1148;104519;-77
2021/01/23 07:48:57;;;;;;;79.03;48.37;;;;;;;5.53;73.34;98296.14;147153;1148;104512;-77
2021/01/23 07:52:07;;;;;;;132.97;83.23;;;;;;;5.52;73.48;98278.61;147190;1148;104476;-77
2021/01/23 07:55:12;;;;;;;156.63;96.45;;;;;;;5.52;73.21;98281.25;147198;1148;104540;-76
2021/01/23 07:58:16;;;;;;;163.03;95.13;;;;;;;5.61;73.33;98274.13;147327;1148;104362;-77
2021/01/23 08:01:19;;;;;;;232.90;154.13;;;;;;;5.66;73.51;98280.56;147252;1148;104498;-77
2021/01/23 08:04:33;;;;;;;245.15;158.65;;;;;;;5.71;73.99;98280.05;146913;1148;104463;-77
2021/01/23 08:07:42;;;;;;;176.20;110.83;;;;;;;5.74;72.98;98271.77;147187;1148;104577;-76
2021/01/23 08:10:45;;;;;;;844.05;576.95;;;;;;;5.74;73.46;98265.66;147323;1148;104470;-75
2021/01/23 08:13:48;;;;;;;332.23;163.30;;;;;;;5.74;74.09;98255.90;147073;1148;104714;-77
2021/01/23 08:16:53;;;;;;;394.37;258.20;;;;;;;5.80;73.24;98249.91;146899;1148;104921;-76
2021/01/23 08:19:56;;;;;;;544.20;375.27;;;;;;;5.87;73.38;98245.59;146649;1148;104607;-78
2021/01/23 08:23:09;;;;;;;519.02;334.00;;;;;;;5.94;73.14;98244.89;146866;1150;104482;-79
2021/01/23 08:26:12;;;;;;;501.02;338.15;;;;;;;5.95;73.09;98247.41;146761;1148;104478;-78
2021/01/23 08:29:20;;;;;;;187.22;107.95;;;;;;;5.98;73.25;98252.33;147897;1148;104545;-78
2021/01/23 08:32:23;;;;;;;206.70;126.40;;;;;;;5.99;73.02;98242.59;148299;1148;104471;-77
2021/01/23 08:35:26;;;;;;;309.77;186.83;;;;;;;5.97;73.52;98250.70;147197;1148;104572;-82
2021/01/23 08:38:30;;;;;;;254.63;150.10;;;;;;;6.01;73.63;98246.70;147159;1148;104485;-71
2021/01/23 08:41:33;;;;;;;366.08;248.70;;;;;;;6.05;74.26;98240.06;147312;1150;104471;-71
2021/01/23 08:44:36;;;;;;;100.25;63.35;;;;;;;6.09;74.16;98235.25;147336;1150;104701;-72
2021/01/23 08:47:40;;;;;;;116.33;75.65;;;;;;;6.14;73.35;98253.25;147223;1150;104466;-73
2021/01/23 08:50:43;;;;;;;110.97;79.75;;;;;;;6.16;73.43;98246.80;147250;1149;104545;-71
2021/01/23 08:53:46;;;;;;;113.57;78.93;;;;;;;6.18;73.56;98244.80;147003;1151;104470;-72
2021/01/23 08:56:49;;;;;;;107.17;65.05;;;;;;;6.20;73.96;98239.34;147275;1150;104503;-72
2021/01/23 08:59:52;;;;;;;78.25;49.93;;;;;;;6.23;74.35;98237.14;147119;1150;104478;-71
2021/01/23 09:02:55;;;;;;;64.67;44.23;;;;;;;6.28;73.28;98242.74;147259;1150;104550;-72
2021/01/23 09:05:59;;;;;;;110.60;80.93;;;;;;;6.32;74.46;98224.68;147389;1150;104620;-75
2021/01/23 09:09:02;;;;;;;55.28;35.95;;;;;;;6.37;73.78;98226.79;148430;1148;104446;-75
2021/01/23 09:12:07;;;;;;;34.58;23.15;;;;;;;6.38;74.08;98247.00;147845;1150;104482;-75
2021/01/23 09:15:11;;;;;;;76.28;54.95;;;;;;;6.38;74.40;98247.81;147377;1148;104491;-70
2021/01/23 09:18:15;;;;;;;63.00;39.53;;;;;;;6.41;74.44;98233.37;146948;1150;104598;-72
2021/01/23 09:21:18;;;;;;;113.47;68.22;;;;;;;6.50;74.59;98240.27;147044;1148;104464;-71
2021/01/23 09:24:21;;;;;;;64.62;38.65;;;;;;;6.58;74.51;98237.59;147616;1148;104516;-74
2021/01/23 09:27:24;;;;;;;64.17;38.05;;;;;;;6.64;73.58;98242.17;147278;1148;104500;-71
2021/01/23 09:30:27;;;;;;;39.42;23.90;;;;;;;6.69;73.33;98252.23;147583;1148;104543;-71
2021/01/23 09:33:31;;;;;;;85.50;53.70;;;;;;;6.72;74.29;98248.39;147346;1149;104927;-70
2021/01/23 09:36:34;;;;;;;56.80;34.03;;;;;;;6.77;73.42;98246.05;146830;1149;104503;-71
2021/01/23 09:39:37;;;;;;;78.72;45.28;;;;;;;6.77;73.67;98246.86;147059;1148;104482;-69
2021/01/23 09:42:40;;;;;;;72.10;45.07;;;;;;;6.80;73.74;98245.70;147371;1148;104463;-71
2021/01/23 09:45:43;;;;;;;77.80;50.37;;;;;;;6.84;73.75;98233.73;147301;1148;104711;-71
2021/01/23 09:48:46;;;;;;;74.23;48.83;;;;;;;6.88;73.43;98241.13;147175;1148;104544;-72
2021/01/23 09:51:49;;;;;;;78.13;53.77;;;;;;;6.91;73.29;98236.48;147340;1148;104681;-71
2021/01/23 09:54:52;;;;;;;71.30;47.10;;;;;;;6.93;73.95;98235.31;147400;1148;104709;-71
2021/01/23 09:57:56;;;;;;;52.25;34.00;;;;;;;6.87;73.70;98242.16;147162;1148;104482;-71
2021/01/23 10:00:59;;;;;;;49.03;29.90;;;;;;;6.83;73.58;98227.61;147177;1148;104616;-71
2021/01/23 10:04:02;;;;;;;60.73;36.77;;;;;;;6.88;74.40;98227.88;147169;1148;104483;-71
2021/01/23 10:07:05;;;;;;;40.30;26.10;;;;;;;6.91;74.21;98224.06;147188;1148;104493;-71
2021/01/23 10:10:10;;;;;;;46.15;29.20;;;;;;;6.95;73.28;98228.00;147224;1148;104460;-70
2021/01/23 10:13:13;;;;;;;51.77;32.60;;;;;;;6.93;74.71;98227.36;147287;1148;104482;-70
2021/01/23 10:16:16;;;;;;;111.65;58.78;;;;;;;6.96;73.75;98221.68;147094;1148;104604;-71
2021/01/23 10:19:20;;;;;;;67.60;37.70;;;;;;;7.00;73.89;98230.92;147222;1148;104559;-72
2021/01/23 10:22:23;;;;;;;45.65;25.30;;;;;;;6.98;73.58;98224.16;147179;1148;104466;-71
2021/01/23 10:25:26;;;;;;;120.00;57.15;;;;;;;7.01;73.03;98229.11;147276;1148;104479;-71
2021/01/23 10:28:29;;;;;;;47.77;29.10;;;;;;;7.05;73.29;98220.61;146994;1148;104538;-71
2021/01/23 10:31:32;;;;;;;59.65;37.28;;;;;;;7.10;73.60;98220.05;147097;1148;104567;-71
2021/01/23 10:34:36;;;;;;;56.68;38.30;;;;;;;7.13;73.13;98208.28;147060;1148;104523;-71
2021/01/23 10:37:39;;;;;;;48.87;29.27;;;;;;;7.15;74.18;98195.66;147060;1150;104973;-71
2021/01/23 10:40:43;;;;;;;55.58;31.23;;;;;;;7.17;73.58;98183.03;147124;1148;104485;-71
2021/01/23 10:43:47;;;;;;;50.52;29.70;;;;;;;7.15;74.20;98166.48;146518;1148;104665;-71
2021/01/23 10:46:50;;;;;;;46.20;27.32;;;;;;;7.11;73.48;98162.55;146466;1148;104538;-71
2021/01/23 10:49:53;;;;;;;42.38;24.80;;;;;;;7.13;73.84;98155.23;146534;1148;104870;-72
2021/01/23 10:52:56;;;;;;;47.98;29.02;;;;;;;7.18;74.33;98152.84;146570;1148;104502;-72
2021/01/23 10:56:00;;;;;;;48.60;30.67;;;;;;;7.17;73.19;98161.81;146772;1149;104457;-71
2021/01/23 10:59:03;;;;;;;54.18;32.73;;;;;;;7.15;73.89;98159.34;146640;1149;104482;-71
2021/01/23 11:02:06;;;;;;;49.08;32.67;;;;;;;7.18;74.50;98152.84;146822;1150;104532;-71
2021/01/23 11:05:11;;;;;;;40.60;27.32;;;;;;;7.13;73.82;98149.93;146898;1149;104560;-72
2021/01/23 11:08:14;;;;;;;36.17;22.75;;;;;;;7.00;74.60;98138.11;147053;1149;104473;-71
2021/01/23 11:11:17;;;;;;;36.63;22.00;;;;;;;7.00;73.81;98143.41;147031;1149;104471;-71
2021/01/23 11:14:22;;;;;;;35.17;21.67;;;;;;;7.03;73.81;98127.16;147066;1150;104604;-71
2021/01/23 11:17:25;;;;;;;38.25;24.57;;;;;;;7.07;74.61;98123.12;147057;1150;104626;-72
2021/01/23 11:20:28;;;;;;;37.83;23.97;;;;;;;7.12;73.82;98121.75;147050;1151;104518;-73
2021/01/23 11:23:31;;;;;;;34.90;21.77;;;;;;;7.09;73.96;98130.91;147159;1150;104569;-71
2021/01/23 11:26:34;;;;;;;44.85;28.60;;;;;;;7.10;74.30;98126.42;147211;1150;104484;-72
2021/01/23 11:29:38;;;;;;;197.73;94.33;;;;;;;7.09;73.91;98133.56;147059;1150;104479;-72
2021/01/23 11:32:41;;;;;;;619.23;319.70;;;;;;;7.13;74.63;98134.02;147145;1150;104543;-72
2021/01/23 11:35:44;;;;;;;145.10;75.10;;;;;;;7.20;73.85;98113.72;147219;1150;104512;-72
2021/01/23 11:38:48;;;;;;;739.05;451.75;;;;;;;7.22;73.54;98114.36;147153;1151;104512;-71
2021/01/23 11:41:51;;;;;;;462.57;284.05;;;;;;;7.26;73.72;98103.19;147040;1150;104545;-72
2021/01/23 11:44:54;;;;;;;271.13;158.45;;;;;;;7.26;74.03;98107.67;146845;1150;104498;-70
2021/01/23 11:47:57;;;;;;;390.23;259.23;;;;;;;7.24;74.72;98112.34;147101;1150;104643;-72
2021/01/23 11:51:00;;;;;;;374.90;233.55;;;;;;;7.25;74.54;98100.70;147026;1151;104563;-71
2021/01/23 11:54:04;;;;;;;102.63;63.20;;;;;;;7.27;74.71;98078.31;147021;1150;104472;-71
2021/01/23 11:57:08;;;;;;;234.90;138.40;;;;;;;7.30;73.80;98087.72;146962;1151;104559;-70
2021/01/23 12:00:13;;;;;;;188.20;118.28;;;;;;;7.32;74.40;98091.02;147095;1150;104554;-71
2021/01/23 12:03:17;;;;;;;95.57;63.80;;;;;;;7.35;73.54;98073.89;147237;1150;104735;-74
2021/01/23 12:06:20;;;;;;;199.40;136.37;;;;;;;7.36;73.58;98079.02;147198;1150;104476;-70
2021/01/23 12:09:23;;;;;;;83.60;53.42;;;;;;;7.38;74.74;98079.65;146979;1149;104518;-71
2021/01/23 12:12:26;;;;;;;48.35;32.38;;;;;;;7.39;73.82;98069.85;146725;1149;104476;-71
2021/01/23 12:15:29;;;;;;;32.00;21.03;;;;;;;7.42;74.51;98062.34;146951;1149;104559;-70
2021/01/23 12:18:33;;;;;;;91.32;60.28;;;;;;;7.48;74.11;98066.09;147154;1150;104629;-75
2021/01/23 12:21:36;;;;;;;73.85;49.38;;;;;;;7.55;74.51;98066.98;147225;1150;104876;-74
2021/01/23 12:24:39;;;;;;;81.22;54.27;;;;;;;7.62;74.47;98069.70;147043;1149;104531;-74
2021/01/23 12:27:43;;;;;;;76.67;53.13;;;;;;;7.66;74.30;98057.72;147150;1148;104460;-72
2021/01/23 12:30:47;;;;;;;74.65;51.58;;;;;;;7.68;74.39;98063.66;147361;1148;104592;-72
2021/01/23 12:33:50;;;;;;;115.50;78.37;;;;;;;7.71;73.38;98057.14;146533;1148;104618;-71
2021/01/23 12:36:53;;;;;;;106.87;66.47;;;;;;;7.68;74.28;98047.73;146973;1148;104546;-71
2021/01/23 12:39:56;;;;;;;114.55;72.40;;;;;;;7.75;74.05;98043.30;147019;1148;104499;-71
2021/01/23 12:42:59;;;;;;;66.92;42.90;;;;;;;7.81;73.98;98034.59;146879;1148;104496;-71
2021/01/23 12:46:02;;;;;;;48.37;33.27;;;;;;;7.83;73.92;98024.60;146523;1145;104479;-74
2021/01/23 12:49:05;;;;;;;121.10;84.17;;;;;;;7.88;74.07;98021.37;146962;1148;104789;-70
2021/01/23 12:52:10;;;;;;;100.58;66.65;;;;;;;7.91;74.71;98021.00;147011;1148;104492;-71
2021/01/23 12:55:15;;;;;;;53.40;35.80;;;;;;;7.91;73.70;98021.00;146583;1148;104847;-71
2021/01/23 12:58:21;;;;;;;62.90;44.38;;;;;;;7.88;73.30;98016.05;146972;1148;104461;-71
2021/01/23 13:01:24;;;;;;;182.02;113.28;;;;;;;7.84;73.85;98012.14;147266;1148;104456;-71
2021/01/23 13:04:28;;;;;;;106.47;66.02;;;;;;;7.88;74.67;98017.90;147190;1148;104839;-72
2021/01/23 13:07:31;;;;;;;66.60;43.52;;;;;;;7.93;73.51;98018.13;147489;1148;104449;-71
2021/01/23 13:10:34;;;;;;;75.20;48.07;;;;;;;7.96;73.47;98023.06;146953;1150;104480;-71
2021/01/23 13:13:37;;;;;;;114.10;74.67;;;;;;;8.00;73.36;98019.02;147213;1149;104481;-72
2021/01/23 13:16:43;;;;;;;36.90;24.18;;;;;;;7.96;73.73;98004.48;147262;1151;104671;-72
2021/01/23 13:19:46;;;;;;;134.15;88.15;;;;;;;7.94;74.43;98017.13;147048;1149;104592;-71
2021/01/23 13:22:49;;;;;;;209.92;140.35;;;;;;;7.92;73.92;98014.66;146932;1150;104571;-72
2021/01/23 13:25:52;;;;;;;55.00;34.20;;;;;;;7.93;73.72;98018.13;147177;1150;104557;-71
2021/01/23 13:28:55;;;;;;;143.05;88.90;;;;;;;7.98;73.83;98013.08;147067;1148;104563;-72
2021/01/23 13:31:58;;;;;;;126.60;78.62;;;;;;;8.03;73.77;98023.95;146886;1148;104565;-72
2021/01/23 13:35:02;;;;;;;152.90;91.72;;;;;;;8.05;73.72;98017.42;146879;1149;104754;-72
2021/01/23 13:38:07;;;;;;;136.15;82.42;;;;;;;8.09;74.27;98017.05;146918;1148;104566;-71
2021/01/23 13:41:10;;;;;;;67.80;38.00;;;;;;;8.09;73.73;98019.71;147220;1150;104559;-72
2021/01/23 13:44:13;;;;;;;147.17;88.93;;;;;;;8.05;74.14;98021.92;147312;1148;104483;-71
2021/01/23 13:47:16;;;;;;;74.07;43.90;;;;;;;8.00;73.40;98009.20;147431;1150;104927;-76
2021/01/23 13:50:19;;;;;;;120.15;69.47;;;;;;;7.93;73.80;98002.19;147185;1151;104548;-71
2021/01/23 13:53:23;;;;;;;72.82;40.35;;;;;;;7.92;73.85;98013.84;147286;1150;104640;-70